KSLR

Sulphur Springs Municipal Airport

Sulphur Springs, Texas, USA
METAR KSLR 201235Z AUTO 17009G14KT 7SM BKN007 OVC013 13/12 A3004 RMK AO2 T01260124
Observed Flight Rules
Jan-20 @ 12:35 UTC (25 minutes ago) Instrument Flight Rules
Wind Visibility Clouds
170° at 9 knots
 Gusting to 14 knots
7 miles
  • Broken at 700' AGL
  • Overcast at 1,300' AGL
Temperatures Readings
Current 13°C / 55°F
Dewpoint 12°C / 54°F
Humidity 94%
Altimeter 30.04" Hg
Pressure 1017 hPa
Elevation 149
METAR KSLR 201235Z AUTO 17009G14KT 7SM BKN007 OVC013 13/12 A3004 RMK AO2 T01260124
Observed Flight Rules
Jan-20 @ 12:35 UTC
(25 minutes ago)
IFR
Wind Visibility
170° at 9 knots
 Gusting to 14 knots
7 miles
Clouds
  • Broken at 700' AGL
  • Overcast at 1,300' AGL
Temperature Dewpoint
13°C / 55°F 12°C / 54°F
Humidity Altimeter Pressure
94% 30.04" Hg 1017 hPa